Darstellungsparameter: Aktuell verwendete Einstellungen:
Skalierung der Graphiken ... ?
xyx+y,   Skalierungsfaktor:      Skalierung: Modus: x, Faktor: 1
Darstellungszeitraum ... ?
Vom - - bis: - -   Zeitraum: 11.12.2020 - 11.12.2020
Min/Max/Avg-Anzeige ... ?
Zeige MMA aktuell
Zeige MMA Monat
Zeige MMA alles
Zeige --A aktuell
Zeige --A Monat
Zeige --A alles
Keine MMA-Anzeige
MMA:
Minimum Maximum Average (ber die Originaldaten)
MMA-Basis: 23.02.2003 - 28.11.2020
Quicknavigation für Darstellung... ?
Tage:      1T, 2T, 3T, 5T -1T -2T -3T -5T +1T +2T +3T +5T
Wochen: 1W, 2W, 3W -1W -2W -3W +1W +2W +3W
Monate: 1M, 3M, 6M -1M -3M -6M +1M +3M +6M
Jahre:    1J, 3J, 5J, 10J -1J -3J -5J -10J +1J +3J +5J +10J
Nutze für die Darstellung ... ?
Originaldaten oder Mittelwerte auf ...
Stundenbasis Tagesbasis Wochenbasis
Monatsbasis Jahresbasis      Datenbasis: Original-Daten
Darstellen als:
Statistik (Auto) Statistik J:M      Darstellung:
Zur Graphik,    zurück zur Übersicht aller Sensoren.
 
Tabellarische Datenbersicht: ?
 
Sensor: Nr:Datum:Temp:Abs-Feuchte:Windchill:Wind:
Aussen-T/F 1 11-12-2020 00:00:00 1.3 C 4.87 g/m*3 1.3 C 0 km/h
2 11-12-2020 00:05:00 1.4 C 4.91 g/m*3 1.4 C 0 km/h
3 11-12-2020 00:10:00 1.4 C 4.91 g/m*3 1.4 C 0 km/h
4 11-12-2020 00:15:00 1.4 C 4.91 g/m*3 1.4 C 0 km/h
5 11-12-2020 00:20:00 1.4 C 4.91 g/m*3 1.4 C 0 km/h
6 11-12-2020 00:25:00 1.4 C 4.91 g/m*3 1.4 C 0 km/h
7 11-12-2020 00:30:00 1.4 C 4.91 g/m*3 1.4 C 0 km/h
8 11-12-2020 00:35:00 1.4 C 4.91 g/m*3 1.4 C 0 km/h
9 11-12-2020 00:40:00 1.4 C 4.91 g/m*3 1.4 C 1.6 km/h
10 11-12-2020 00:45:00 1.4 C 4.91 g/m*3 1.4 C 1.6 km/h
11 11-12-2020 00:50:00 1.4 C 4.91 g/m*3 1.4 C 0 km/h
12 11-12-2020 00:55:00 1.4 C 4.91 g/m*3 1.4 C 0 km/h
13 11-12-2020 01:00:00 1.4 C 4.91 g/m*3 1.4 C 0 km/h
14 11-12-2020 01:05:00 1.4 C 4.91 g/m*3 1.4 C 0 km/h
15 11-12-2020 01:10:00 1.4 C 4.91 g/m*3 1.4 C 0 km/h
16 11-12-2020 01:15:00 1.4 C 4.91 g/m*3 1.4 C 0 km/h
17 11-12-2020 01:20:00 1.4 C 4.91 g/m*3 1.4 C 0 km/h
18 11-12-2020 01:25:00 1.4 C 4.91 g/m*3 1.4 C 0 km/h
19 11-12-2020 01:30:00 1.3 C 4.87 g/m*3 1.3 C 0 km/h
20 11-12-2020 01:35:00 1.2 C 4.84 g/m*3 1.2 C 0 km/h
21 11-12-2020 01:40:00 1.1 C 4.76 g/m*3 1.1 C 0 km/h
22 11-12-2020 01:45:00 0.9 C 4.69 g/m*3 0.9 C 0 km/h
23 11-12-2020 01:50:00 0.8 C 4.66 g/m*3 0.8 C 0 km/h
24 11-12-2020 01:55:00 0.7 C 4.63 g/m*3 0.7 C 0 km/h
25 11-12-2020 02:00:00 0.6 C 4.65 g/m*3 0.6 C 0 km/h
Sensor: Nr:Datum:Temp:Abs-Feuchte:Windchill:Wind:
Aussen-T/F 26 11-12-2020 02:05:00 0.5 C 4.56 g/m*3 0.5 C 0 km/h
27 11-12-2020 02:10:00 0.4 C 4.58 g/m*3 0.4 C 0 km/h
28 11-12-2020 02:15:00 0.3 C 4.55 g/m*3 0.3 C 0 km/h
29 11-12-2020 02:20:00 0.3 C 4.55 g/m*3 0.3 C 3.2 km/h
30 11-12-2020 02:25:00 0.3 C 4.55 g/m*3 0.3 C 1.6 km/h
31 11-12-2020 02:30:00 0.2 C 4.57 g/m*3 0.2 C 0 km/h
32 11-12-2020 02:35:00 0.2 C 4.57 g/m*3 0.2 C 1.6 km/h
33 11-12-2020 02:40:00 0.2 C 4.57 g/m*3 0.2 C 0 km/h
34 11-12-2020 02:45:00 0.2 C 4.57 g/m*3 0.2 C 0 km/h
35 11-12-2020 02:50:00 0.3 C 4.65 g/m*3 0.3 C 1.6 km/h
36 11-12-2020 02:55:00 0.4 C 4.68 g/m*3 0.4 C 0 km/h
37 11-12-2020 03:00:00 0.5 C 4.71 g/m*3 0.5 C 3.2 km/h
38 11-12-2020 03:05:00 0.6 C 4.75 g/m*3 0.6 C 0 km/h
39 11-12-2020 03:10:00 0.7 C 4.78 g/m*3 0.7 C 3.2 km/h
40 11-12-2020 03:15:00 0.8 C 4.81 g/m*3 -2.28 C 9.7 km/h
41 11-12-2020 03:20:00 1 C 4.88 g/m*3 1 C 3.2 km/h
42 11-12-2020 03:25:00 1.1 C 4.86 g/m*3 1.1 C 0 km/h
43 11-12-2020 03:30:00 1.1 C 4.86 g/m*3 1.1 C 1.6 km/h
44 11-12-2020 03:35:00 1.1 C 4.86 g/m*3 1.1 C 1.6 km/h
45 11-12-2020 03:40:00 1.1 C 4.86 g/m*3 1.1 C 1.6 km/h
46 11-12-2020 03:45:00 1.1 C 4.86 g/m*3 1.1 C 0 km/h
47 11-12-2020 03:50:00 1 C 4.83 g/m*3 1 C 3.2 km/h
48 11-12-2020 03:55:00 1 C 4.83 g/m*3 1 C 3.2 km/h
49 11-12-2020 04:00:00 1 C 4.83 g/m*3 1 C 0 km/h
50 11-12-2020 04:05:00 0.9 C 4.79 g/m*3 0.9 C 0 km/h
Sensor: Nr:Datum:Temp:Abs-Feuchte:Windchill:Wind:
Aussen-T/F 51 11-12-2020 04:10:00 0.9 C 4.74 g/m*3 0.9 C 0 km/h
52 11-12-2020 04:15:00 0.8 C 4.71 g/m*3 0.8 C 0 km/h
53 11-12-2020 04:20:00 0.7 C 4.68 g/m*3 0.7 C 3.2 km/h
54 11-12-2020 04:25:00 0.6 C 4.65 g/m*3 0.6 C 0 km/h
55 11-12-2020 04:30:00 0.6 C 4.7 g/m*3 0.6 C 0 km/h
56 11-12-2020 04:35:00 0.5 C 4.61 g/m*3 0.5 C 3.2 km/h
57 11-12-2020 04:40:00 0.4 C 4.63 g/m*3 0.4 C 1.6 km/h
58 11-12-2020 04:45:00 0.5 C 4.66 g/m*3 0.5 C 0 km/h
59 11-12-2020 04:50:00 0.5 C 4.66 g/m*3 0.5 C 3.2 km/h
60 11-12-2020 04:55:00 0.5 C 4.66 g/m*3 0.5 C 3.2 km/h
61 11-12-2020 05:00:00 0.5 C 4.66 g/m*3 0.5 C 3.2 km/h
62 11-12-2020 05:05:00 0.4 C 4.63 g/m*3 0.4 C 3.2 km/h
63 11-12-2020 05:10:00 0.3 C 4.6 g/m*3 0.3 C 0 km/h
64 11-12-2020 05:15:00 0.3 C 4.6 g/m*3 0.3 C 0 km/h
65 11-12-2020 05:20:00 0.2 C 4.57 g/m*3 0.2 C 0 km/h
66 11-12-2020 05:25:00 0.2 C 4.57 g/m*3 0.2 C 0 km/h
67 11-12-2020 05:30:00 0.1 C 4.54 g/m*3 0.1 C 3.2 km/h
68 11-12-2020 05:35:00 0.1 C 4.54 g/m*3 0.1 C 1.6 km/h
69 11-12-2020 05:40:00 0 C 4.51 g/m*3 0 C 3.2 km/h
70 11-12-2020 05:45:00 0 C 4.55 g/m*3 0 C 3.2 km/h
71 11-12-2020 05:50:00 -0.1 C 4.52 g/m*3 -0.1 C 1.6 km/h
72 11-12-2020 05:55:00 -0.1 C 4.52 g/m*3 -0.1 C 3.2 km/h
73 11-12-2020 06:00:00 -0.2 C 4.49 g/m*3 -0.2 C 1.6 km/h
74 11-12-2020 06:05:00 -0.2 C 4.49 g/m*3 -0.2 C 0 km/h
75 11-12-2020 06:10:00 -0.1 C 4.52 g/m*3 -0.1 C 1.6 km/h
Sensor: Nr:Datum:Temp:Abs-Feuchte:Windchill:Wind:
Aussen-T/F 76 11-12-2020 06:15:00 0.1 C 4.63 g/m*3 -2.07 C 6.4 km/h
77 11-12-2020 06:20:00 0.3 C 4.7 g/m*3 -1.84 C 6.4 km/h
78 11-12-2020 06:25:00 0.4 C 4.73 g/m*3 0.4 C 3.2 km/h
79 11-12-2020 06:30:00 0.6 C 4.8 g/m*3 0.6 C 4.8 km/h
80 11-12-2020 06:35:00 0.8 C 4.86 g/m*3 -2.67 C 11.3 km/h
81 11-12-2020 06:40:00 1 C 4.88 g/m*3 -2.43 C 11.3 km/h
82 11-12-2020 06:45:00 1.2 C 4.89 g/m*3 -0.8 C 6.4 km/h
83 11-12-2020 06:50:00 1.3 C 4.93 g/m*3 1.3 C 0 km/h
84 11-12-2020 06:55:00 1.3 C 4.93 g/m*3 1.3 C 1.6 km/h
85 11-12-2020 07:00:00 1.3 C 4.93 g/m*3 1.3 C 0 km/h
86 11-12-2020 07:05:00 1.4 C 4.91 g/m*3 1.4 C 4.8 km/h
87 11-12-2020 07:10:00 1.4 C 4.91 g/m*3 1.4 C 3.2 km/h
88 11-12-2020 07:15:00 1.6 C 4.92 g/m*3 -0.89 C 8.1 km/h
89 11-12-2020 07:20:00 1.7 C 4.95 g/m*3 1.7 C 3.2 km/h
90 11-12-2020 07:25:00 1.7 C 4.95 g/m*3 1.7 C 1.6 km/h
91 11-12-2020 07:30:00 1.8 C 4.99 g/m*3 1.8 C 0 km/h
92 11-12-2020 07:35:00 1.8 C 4.99 g/m*3 1.8 C 1.6 km/h
93 11-12-2020 07:40:00 1.7 C 4.9 g/m*3 1.7 C 4.8 km/h
94 11-12-2020 07:45:00 1.7 C 4.9 g/m*3 1.7 C 4.8 km/h
95 11-12-2020 07:50:00 1.8 C 4.93 g/m*3 1.8 C 4.8 km/h
96 11-12-2020 07:55:00 1.8 C 4.93 g/m*3 1.8 C 3.2 km/h
97 11-12-2020 08:00:00 1.9 C 4.91 g/m*3 1.9 C 0 km/h
98 11-12-2020 08:05:00 1.9 C 4.91 g/m*3 -0.54 C 8.1 km/h
99 11-12-2020 08:10:00 1.9 C 4.91 g/m*3 1.9 C 3.2 km/h
100 11-12-2020 08:15:00 2 C 4.95 g/m*3 0.13 C 6.4 km/h
Sensor: Nr:Datum:Temp:Abs-Feuchte:Windchill:Wind:
Aussen-T/F 101 11-12-2020 08:20:00 2.1 C 4.98 g/m*3 0.24 C 6.4 km/h
102 11-12-2020 08:25:00 2.2 C 4.96 g/m*3 0.36 C 6.4 km/h
103 11-12-2020 08:30:00 2.2 C 4.96 g/m*3 -0.18 C 8.1 km/h
104 11-12-2020 08:35:00 2.2 C 4.96 g/m*3 2.2 C 1.6 km/h
105 11-12-2020 08:40:00 2.3 C 4.99 g/m*3 2.3 C 3.2 km/h
106 11-12-2020 08:45:00 2.3 C 4.99 g/m*3 2.3 C 1.6 km/h
107 11-12-2020 08:50:00 2.3 C 4.99 g/m*3 -0.07 C 8.1 km/h
108 11-12-2020 08:55:00 2.4 C 5.02 g/m*3 2.4 C 4.8 km/h
109 11-12-2020 09:00:00 2.4 C 5.02 g/m*3 2.4 C 3.2 km/h
110 11-12-2020 09:05:00 2.4 C 5.02 g/m*3 2.4 C 4.8 km/h
111 11-12-2020 09:10:00 2.4 C 5.02 g/m*3 -0.37 C 9.7 km/h
112 11-12-2020 09:15:00 2.5 C 5.06 g/m*3 0.17 C 8.1 km/h
113 11-12-2020 09:20:00 2.5 C 5.06 g/m*3 -0.26 C 9.7 km/h
114 11-12-2020 09:25:00 2.6 C 5.09 g/m*3 2.6 C 4.8 km/h
115 11-12-2020 09:30:00 2.6 C 5.09 g/m*3 2.6 C 4.8 km/h
116 11-12-2020 09:35:00 2.6 C 5.09 g/m*3 2.6 C 4.8 km/h
117 11-12-2020 09:40:00 2.7 C 5.13 g/m*3 -0.02 C 9.7 km/h
118 11-12-2020 09:45:00 2.7 C 5.13 g/m*3 2.7 C 4.8 km/h
119 11-12-2020 09:50:00 2.7 C 5.07 g/m*3 2.7 C 4.8 km/h
120 11-12-2020 09:55:00 2.8 C 5.1 g/m*3 2.8 C 1.6 km/h
121 11-12-2020 10:00:00 2.8 C 5.1 g/m*3 2.8 C 4.8 km/h
122 11-12-2020 10:05:00 2.9 C 5.14 g/m*3 2.9 C 4.8 km/h
123 11-12-2020 10:10:00 2.9 C 5.14 g/m*3 2.9 C 1.6 km/h
124 11-12-2020 10:15:00 3 C 5.17 g/m*3 3 C 1.6 km/h
125 11-12-2020 10:20:00 3.1 C 5.21 g/m*3 3.1 C 1.6 km/h
Sensor: Nr:Datum:Temp:Abs-Feuchte:Windchill:Wind:
Aussen-T/F 126 11-12-2020 10:25:00 3.1 C 5.21 g/m*3 3.1 C 4.8 km/h
127 11-12-2020 10:30:00 3.2 C 5.24 g/m*3 3.2 C 3.2 km/h
128 11-12-2020 10:35:00 3.2 C 5.18 g/m*3 3.2 C 3.2 km/h
129 11-12-2020 10:40:00 3.3 C 5.22 g/m*3 1.63 C 6.4 km/h
130 11-12-2020 10:45:00 3.3 C 5.28 g/m*3 1.63 C 6.4 km/h
131 11-12-2020 10:50:00 3.3 C 5.28 g/m*3 1.11 C 8.1 km/h
132 11-12-2020 10:55:00 3.4 C 5.31 g/m*3 3.4 C 1.6 km/h
133 11-12-2020 11:00:00 3.4 C 5.37 g/m*3 1.75 C 6.4 km/h
134 11-12-2020 11:05:00 3.4 C 5.37 g/m*3 3.4 C 4.8 km/h
135 11-12-2020 11:10:00 3.4 C 5.37 g/m*3 3.4 C 4.8 km/h
136 11-12-2020 11:15:00 3.4 C 5.37 g/m*3 3.4 C 4.8 km/h
137 11-12-2020 11:20:00 3.4 C 5.37 g/m*3 1.23 C 8.1 km/h
138 11-12-2020 11:25:00 3.4 C 5.37 g/m*3 1.75 C 6.4 km/h
139 11-12-2020 11:30:00 3.4 C 5.37 g/m*3 1.75 C 6.4 km/h
140 11-12-2020 11:35:00 3.4 C 5.37 g/m*3 3.4 C 4.8 km/h
141 11-12-2020 11:40:00 3.5 C 5.41 g/m*3 3.5 C 4.8 km/h
142 11-12-2020 11:45:00 3.6 C 5.45 g/m*3 1.98 C 6.4 km/h
143 11-12-2020 11:50:00 3.5 C 5.35 g/m*3 1.34 C 8.1 km/h
144 11-12-2020 11:55:00 3.5 C 5.41 g/m*3 0.94 C 9.7 km/h
145 11-12-2020 12:00:00 3.6 C 5.45 g/m*3 1.98 C 6.4 km/h
146 11-12-2020 12:05:00 3.6 C 5.45 g/m*3 1.46 C 8.1 km/h
147 11-12-2020 12:10:00 3.6 C 5.45 g/m*3 1.98 C 6.4 km/h
148 11-12-2020 12:15:00 3.6 C 5.51 g/m*3 3.6 C 3.2 km/h
149 11-12-2020 12:20:00 3.6 C 5.51 g/m*3 1.98 C 6.4 km/h
150 11-12-2020 12:25:00 3.6 C 5.51 g/m*3 1.98 C 6.4 km/h
Sensor: Nr:Datum:Temp:Abs-Feuchte:Windchill:Wind:
Aussen-T/F 151 11-12-2020 12:30:00 3.6 C 5.51 g/m*3 3.6 C 4.8 km/h
152 11-12-2020 12:35:00 3.7 C 5.55 g/m*3 3.7 C 4.8 km/h
153 11-12-2020 12:40:00 3.8 C 5.65 g/m*3 3.8 C 3.2 km/h
154 11-12-2020 12:45:00 3.8 C 5.58 g/m*3 3.8 C 4.8 km/h
155 11-12-2020 12:50:00 3.9 C 5.62 g/m*3 3.9 C 4.8 km/h
156 11-12-2020 12:55:00 4 C 5.66 g/m*3 4 C 4.8 km/h
157 11-12-2020 13:00:00 4.1 C 5.7 g/m*3 4.1 C 1.6 km/h
158 11-12-2020 13:05:00 4.2 C 5.73 g/m*3 4.2 C 3.2 km/h
159 11-12-2020 13:10:00 4.3 C 5.71 g/m*3 4.3 C 3.2 km/h
160 11-12-2020 13:15:00 4.3 C 5.64 g/m*3 4.3 C 3.2 km/h
161 11-12-2020 13:20:00 4.4 C 5.62 g/m*3 4.4 C 4.8 km/h
162 11-12-2020 13:25:00 4.4 C 5.68 g/m*3 2.9 C 6.4 km/h
163 11-12-2020 13:30:00 4.6 C 5.69 g/m*3 2.64 C 8.1 km/h
164 11-12-2020 13:35:00 4.6 C 5.62 g/m*3 1.61 C 12.9 km/h
165 11-12-2020 13:40:00 4.6 C 5.62 g/m*3 2.64 C 8.1 km/h
166 11-12-2020 13:45:00 4.6 C 5.62 g/m*3 1.61 C 12.9 km/h
167 11-12-2020 13:50:00 4.6 C 5.62 g/m*3 2.64 C 8.1 km/h
168 11-12-2020 13:55:00 4.6 C 5.62 g/m*3 2.64 C 8.1 km/h
169 11-12-2020 14:00:00 4.7 C 5.66 g/m*3 2.76 C 8.1 km/h
170 11-12-2020 14:05:00 4.6 C 5.62 g/m*3 4.6 C 4.8 km/h
171 11-12-2020 14:10:00 4.6 C 5.62 g/m*3 2.64 C 8.1 km/h
172 11-12-2020 14:15:00 4.6 C 5.62 g/m*3 2.64 C 8.1 km/h
173 11-12-2020 14:20:00 4.6 C 5.62 g/m*3 2.64 C 8.1 km/h
174 11-12-2020 14:25:00 4.6 C 5.62 g/m*3 2.64 C 8.1 km/h
175 11-12-2020 14:30:00 4.5 C 5.52 g/m*3 1.48 C 12.9 km/h
Sensor: Nr:Datum:Temp:Abs-Feuchte:Windchill:Wind:
Aussen-T/F 176 11-12-2020 14:35:00 4.4 C 5.55 g/m*3 1.67 C 11.3 km/h
177 11-12-2020 14:40:00 4.4 C 5.55 g/m*3 1.67 C 11.3 km/h
178 11-12-2020 14:45:00 4.3 C 5.51 g/m*3 2.29 C 8.1 km/h
179 11-12-2020 14:50:00 4.3 C 5.51 g/m*3 2.29 C 8.1 km/h
180 11-12-2020 14:55:00 4.3 C 5.51 g/m*3 1.55 C 11.3 km/h
181 11-12-2020 15:00:00 4.3 C 5.58 g/m*3 1.55 C 11.3 km/h
182 11-12-2020 15:05:00 4.2 C 5.54 g/m*3 2.17 C 8.1 km/h
183 11-12-2020 15:10:00 4.2 C 5.54 g/m*3 2.17 C 8.1 km/h
184 11-12-2020 15:15:00 4.2 C 5.54 g/m*3 2.67 C 6.4 km/h
185 11-12-2020 15:20:00 4.2 C 5.54 g/m*3 1.12 C 12.9 km/h
186 11-12-2020 15:25:00 4.1 C 5.5 g/m*3 2.05 C 8.1 km/h
187 11-12-2020 15:30:00 4.1 C 5.57 g/m*3 1.65 C 9.7 km/h
188 11-12-2020 15:35:00 4 C 5.53 g/m*3 4 C 4.8 km/h
189 11-12-2020 15:40:00 3.9 C 5.56 g/m*3 3.9 C 4.8 km/h
190 11-12-2020 15:45:00 3.9 C 5.62 g/m*3 3.9 C 3.2 km/h
191 11-12-2020 15:50:00 3.8 C 5.58 g/m*3 2.21 C 6.4 km/h
192 11-12-2020 15:55:00 3.8 C 5.58 g/m*3 2.21 C 6.4 km/h
193 11-12-2020 16:00:00 3.7 C 5.55 g/m*3 3.7 C 4.8 km/h
194 11-12-2020 16:05:00 3.7 C 5.61 g/m*3 1.58 C 8.1 km/h
195 11-12-2020 16:10:00 3.7 C 5.61 g/m*3 3.7 C 1.6 km/h
196 11-12-2020 16:15:00 3.6 C 5.57 g/m*3 3.6 C 3.2 km/h
197 11-12-2020 16:20:00 3.6 C 5.57 g/m*3 3.6 C 3.2 km/h
198 11-12-2020 16:25:00 3.5 C 5.53 g/m*3 1.86 C 6.4 km/h
199 11-12-2020 16:30:00 3.5 C 5.53 g/m*3 0.94 C 9.7 km/h
200 11-12-2020 16:35:00 3.6 C 5.57 g/m*3 1.06 C 9.7 km/h
Sensor: Nr:Datum:Temp:Abs-Feuchte:Windchill:Wind:
Aussen-T/F 201 11-12-2020 16:40:00 3.6 C 5.57 g/m*3 1.46 C 8.1 km/h
202 11-12-2020 16:45:00 3.7 C 5.61 g/m*3 0.51 C 12.9 km/h
203 11-12-2020 16:50:00 3.7 C 5.61 g/m*3 1.58 C 8.1 km/h
204 11-12-2020 16:55:00 3.7 C 5.61 g/m*3 3.7 C 4.8 km/h
205 11-12-2020 17:00:00 3.7 C 5.61 g/m*3 -0.26 C 17.7 km/h
206 11-12-2020 17:05:00 3.7 C 5.61 g/m*3 3.7 C 4.8 km/h
207 11-12-2020 17:10:00 3.8 C 5.65 g/m*3 1.29 C 9.7 km/h
208 11-12-2020 17:15:00 3.8 C 5.71 g/m*3 3.8 C 4.8 km/h
209 11-12-2020 17:20:00 3.7 C 5.67 g/m*3 2.09 C 6.4 km/h
210 11-12-2020 17:25:00 3.7 C 5.67 g/m*3 0.82 C 11.3 km/h
211 11-12-2020 17:30:00 3.7 C 5.67 g/m*3 2.09 C 6.4 km/h
212 11-12-2020 17:35:00 3.7 C 5.67 g/m*3 0.82 C 11.3 km/h
213 11-12-2020 17:40:00 3.7 C 5.67 g/m*3 2.09 C 6.4 km/h
214 11-12-2020 17:45:00 3.7 C 5.67 g/m*3 3.7 C 4.8 km/h
215 11-12-2020 17:50:00 3.7 C 5.67 g/m*3 1.18 C 9.7 km/h
216 11-12-2020 17:55:00 3.7 C 5.67 g/m*3 1.18 C 9.7 km/h
217 11-12-2020 18:00:00 3.6 C 5.63 g/m*3 1.06 C 9.7 km/h
218 11-12-2020 18:05:00 3.6 C 5.63 g/m*3 1.46 C 8.1 km/h
219 11-12-2020 18:10:00 3.7 C 5.67 g/m*3 1.18 C 9.7 km/h
220 11-12-2020 18:15:00 3.7 C 5.73 g/m*3 3.7 C 1.6 km/h
221 11-12-2020 18:20:00 3.7 C 5.73 g/m*3 2.09 C 6.4 km/h
222 11-12-2020 18:25:00 3.7 C 5.73 g/m*3 1.18 C 9.7 km/h
223 11-12-2020 18:30:00 3.7 C 5.73 g/m*3 2.09 C 6.4 km/h
224 11-12-2020 18:35:00 3.7 C 5.73 g/m*3 3.7 C 4.8 km/h
225 11-12-2020 18:40:00 3.7 C 5.73 g/m*3 3.7 C 4.8 km/h
Sensor: Nr:Datum:Temp:Abs-Feuchte:Windchill:Wind:
Aussen-T/F 226 11-12-2020 18:45:00 3.7 C 5.73 g/m*3 3.7 C 3.2 km/h
227 11-12-2020 18:50:00 3.7 C 5.73 g/m*3 2.09 C 6.4 km/h
228 11-12-2020 18:55:00 3.7 C 5.73 g/m*3 3.7 C 3.2 km/h
229 11-12-2020 19:00:00 3.7 C 5.73 g/m*3 3.7 C 3.2 km/h
230 11-12-2020 19:05:00 3.7 C 5.73 g/m*3 1.58 C 8.1 km/h
231 11-12-2020 19:10:00 3.7 C 5.73 g/m*3 2.09 C 6.4 km/h
232 11-12-2020 19:15:00 3.7 C 5.73 g/m*3 3.7 C 3.2 km/h
233 11-12-2020 19:20:00 3.7 C 5.73 g/m*3 1.58 C 8.1 km/h
234 11-12-2020 19:25:00 3.8 C 5.77 g/m*3 2.21 C 6.4 km/h
235 11-12-2020 19:30:00 3.8 C 5.77 g/m*3 2.21 C 6.4 km/h
236 11-12-2020 19:35:00 3.8 C 5.77 g/m*3 1.7 C 8.1 km/h
237 11-12-2020 19:40:00 3.9 C 5.81 g/m*3 3.9 C 3.2 km/h
238 11-12-2020 19:45:00 3.9 C 5.81 g/m*3 0.75 C 12.9 km/h
239 11-12-2020 19:50:00 3.9 C 5.81 g/m*3 1.82 C 8.1 km/h
240 11-12-2020 19:55:00 3.9 C 5.75 g/m*3 1.41 C 9.7 km/h
241 11-12-2020 20:00:00 3.9 C 5.81 g/m*3 3.9 C 3.2 km/h
242 11-12-2020 20:05:00 3.9 C 5.81 g/m*3 3.9 C 4.8 km/h
243 11-12-2020 20:10:00 3.9 C 5.81 g/m*3 3.9 C 1.6 km/h
244 11-12-2020 20:15:00 3.9 C 5.81 g/m*3 3.9 C 0 km/h
245 11-12-2020 20:20:00 3.9 C 5.81 g/m*3 3.9 C 0 km/h
246 11-12-2020 20:25:00 3.9 C 5.81 g/m*3 3.9 C 0 km/h
247 11-12-2020 20:30:00 3.9 C 5.81 g/m*3 3.9 C 3.2 km/h
248 11-12-2020 20:35:00 4 C 5.85 g/m*3 4 C 4.8 km/h
249 11-12-2020 20:40:00 4 C 5.85 g/m*3 4 C 1.6 km/h
250 11-12-2020 20:45:00 4 C 5.85 g/m*3 4 C 0 km/h
Sensor: Nr:Datum:Temp:Abs-Feuchte:Windchill:Wind:
Aussen-T/F 251 11-12-2020 20:50:00 4 C 5.85 g/m*3 4 C 0 km/h
252 11-12-2020 20:55:00 4 C 5.85 g/m*3 4 C 0 km/h
253 11-12-2020 21:00:00 4 C 5.85 g/m*3 4 C 0 km/h
254 11-12-2020 21:05:00 4 C 5.85 g/m*3 4 C 0 km/h
255 11-12-2020 21:10:00 4 C 5.85 g/m*3 4 C 0 km/h
256 11-12-2020 21:15:00 3.9 C 5.81 g/m*3 3.9 C 0 km/h
257 11-12-2020 21:20:00 3.9 C 5.81 g/m*3 3.9 C 0 km/h
258 11-12-2020 21:25:00 3.9 C 5.87 g/m*3 3.9 C 0 km/h
259 11-12-2020 21:30:00 3.9 C 5.87 g/m*3 3.9 C 0 km/h
260 11-12-2020 21:35:00 3.9 C 5.87 g/m*3 3.9 C 0 km/h
261 11-12-2020 21:40:00 3.9 C 5.87 g/m*3 3.9 C 0 km/h
262 11-12-2020 21:45:00 3.9 C 5.87 g/m*3 3.9 C 0 km/h
263 11-12-2020 21:50:00 3.9 C 5.87 g/m*3 3.9 C 0 km/h
264 11-12-2020 21:55:00 3.9 C 5.87 g/m*3 3.9 C 0 km/h
265 11-12-2020 22:00:00 3.9 C 5.87 g/m*3 3.9 C 0 km/h
266 11-12-2020 22:05:00 3.9 C 5.87 g/m*3 3.9 C 0 km/h
267 11-12-2020 22:10:00 3.9 C 5.87 g/m*3 3.9 C 0 km/h
268 11-12-2020 22:15:00 3.8 C 5.83 g/m*3 3.8 C 0 km/h
269 11-12-2020 22:20:00 3.8 C 5.83 g/m*3 3.8 C 0 km/h
270 11-12-2020 22:25:00 3.8 C 5.83 g/m*3 3.8 C 0 km/h
271 11-12-2020 22:30:00 3.8 C 5.83 g/m*3 3.8 C 0 km/h
272 11-12-2020 22:35:00 3.8 C 5.83 g/m*3 3.8 C 0 km/h
273 11-12-2020 22:40:00 3.8 C 5.83 g/m*3 3.8 C 0 km/h
274 11-12-2020 22:45:00 3.8 C 5.83 g/m*3 3.8 C 0 km/h
275 11-12-2020 22:50:00 3.8 C 5.9 g/m*3 3.8 C 0 km/h
Sensor: Nr:Datum:Temp:Abs-Feuchte:Windchill:Wind:
Aussen-T/F 276 11-12-2020 22:55:00 3.8 C 5.9 g/m*3 3.8 C 0 km/h
277 11-12-2020 23:00:00 3.8 C 5.9 g/m*3 3.8 C 0 km/h
278 11-12-2020 23:05:00 3.9 C 5.94 g/m*3 3.9 C 0 km/h
279 11-12-2020 23:10:00 3.9 C 5.94 g/m*3 3.9 C 0 km/h
280 11-12-2020 23:15:00 3.9 C 5.94 g/m*3 3.9 C 0 km/h
281 11-12-2020 23:20:00 3.9 C 5.94 g/m*3 3.9 C 0 km/h
282 11-12-2020 23:25:00 3.9 C 5.94 g/m*3 3.9 C 0 km/h
283 11-12-2020 23:30:00 3.9 C 5.94 g/m*3 3.9 C 0 km/h
284 11-12-2020 23:35:00 3.9 C 5.94 g/m*3 3.9 C 0 km/h
285 11-12-2020 23:40:00 3.8 C 5.9 g/m*3 3.8 C 0 km/h
286 11-12-2020 23:45:00 3.8 C 5.9 g/m*3 3.8 C 0 km/h
287 11-12-2020 23:50:00 3.8 C 5.9 g/m*3 3.8 C 0 km/h
288 11-12-2020 23:55:00 3.7 C 5.86 g/m*3 3.7 C 0 km/h

Legende:
   Min
   Max


Maximal/Minimal-Werte vom 23.02.2003 - 28.11.2020

Sensor Min Max Avg
Temp
(Aussen-T/F)
-16.4 °C
20-12-2009  01:30:01
40.4 °C
25-07-2019  16:20:00
11.3 °C

Die Daten stammen von einer Davis Vantage Pro 2 Wetter-Station und werden unter Linux mit der Software wview2wettercgi und aufbereitet. Alle Angaben erfolgen ohne Gewähr für ihre Vollständigkeit oder Richtigkeit.
Kontakt: Rainer Krienke krienke@uni-koblenz.de . Meine Webseiten an der Uni Koblenz oder privat.
Version: $Revision: 0.78 $